sensor_id;sensor_type;location;lat;lon;timestamp;temperature;humidity
2851;DHT22;1433;49.976;8.342;2023-05-10T00:02:17;13.20;99.90
2851;DHT22;1433;49.976;8.342;2023-05-10T00:04:44;13.20;99.90
2851;DHT22;1433;49.976;8.342;2023-05-10T00:07:10;13.20;99.90
2851;DHT22;1433;49.976;8.342;2023-05-10T00:09:37;13.20;99.90
2851;DHT22;1433;49.976;8.342;2023-05-10T00:12:04;13.20;99.90
2851;DHT22;1433;49.976;8.342;2023-05-10T00:14:30;13.20;99.90
2851;DHT22;1433;49.976;8.342;2023-05-10T00:16:56;13.10;99.90
2851;DHT22;1433;49.976;8.342;2023-05-10T00:19:22;13.10;99.90
2851;DHT22;1433;49.976;8.342;2023-05-10T00:21:49;13.10;99.90
2851;DHT22;1433;49.976;8.342;2023-05-10T00:24:15;13.10;99.90
2851;DHT22;1433;49.976;8.342;2023-05-10T00:26:41;13.10;99.90
2851;DHT22;1433;49.976;8.342;2023-05-10T00:29:08;13.00;99.90
2851;DHT22;1433;49.976;8.342;2023-05-10T00:31:34;13.00;99.90
2851;DHT22;1433;49.976;8.342;2023-05-10T00:34:00;13.00;99.90
2851;DHT22;1433;49.976;8.342;2023-05-10T00:36:27;13.00;99.90
2851;DHT22;1433;49.976;8.342;2023-05-10T00:38:53;13.00;99.90
2851;DHT22;1433;49.976;8.342;2023-05-10T00:41:19;13.00;99.90
2851;DHT22;1433;49.976;8.342;2023-05-10T00:43:47;13.10;99.90
2851;DHT22;1433;49.976;8.342;2023-05-10T00:46:14;13.00;99.90
2851;DHT22;1433;49.976;8.342;2023-05-10T00:48:43;13.00;99.90
2851;DHT22;1433;49.976;8.342;2023-05-10T00:51:09;13.00;99.90
2851;DHT22;1433;49.976;8.342;2023-05-10T00:53:36;12.90;99.90
2851;DHT22;1433;49.976;8.342;2023-05-10T00:56:02;13.00;99.90
2851;DHT22;1433;49.976;8.342;2023-05-10T00:58:29;13.00;99.90
2851;DHT22;1433;49.976;8.342;2023-05-10T01:00:57;13.00;99.90
2851;DHT22;1433;49.976;8.342;2023-05-10T01:03:25;13.00;99.90
2851;DHT22;1433;49.976;8.342;2023-05-10T01:05:51;13.00;99.90
2851;DHT22;1433;49.976;8.342;2023-05-10T01:08:18;12.90;99.90
2851;DHT22;1433;49.976;8.342;2023-05-10T01:10:55;12.90;99.90
2851;DHT22;1433;49.976;8.342;2023-05-10T01:13:36;12.90;99.90
2851;DHT22;1433;49.976;8.342;2023-05-10T01:16:04;12.90;99.90
2851;DHT22;1433;49.976;8.342;2023-05-10T01:18:35;12.90;99.90
2851;DHT22;1433;49.976;8.342;2023-05-10T01:21:14;12.90;99.90
2851;DHT22;1433;49.976;8.342;2023-05-10T01:37:28;13.00;99.90
2851;DHT22;1433;49.976;8.342;2023-05-10T01:40:01;12.90;99.90
2851;DHT22;1433;49.976;8.342;2023-05-10T01:42:27;13.00;99.90
2851;DHT22;1433;49.976;8.342;2023-05-10T01:47:37;13.00;99.90
2851;DHT22;1433;49.976;8.342;2023-05-10T01:50:04;13.00;99.90
2851;DHT22;1433;49.976;8.342;2023-05-10T01:52:36;13.00;99.90
2851;DHT22;1433;49.976;8.342;2023-05-10T01:55:06;13.00;99.90
2851;DHT22;1433;49.976;8.342;2023-05-10T01:57:39;13.00;99.90
2851;DHT22;1433;49.976;8.342;2023-05-10T02:00:08;13.00;99.90
2851;DHT22;1433;49.976;8.342;2023-05-10T02:02:46;13.00;99.90
2851;DHT22;1433;49.976;8.342;2023-05-10T02:05:14;13.00;99.90
2851;DHT22;1433;49.976;8.342;2023-05-10T02:07:42;13.00;99.90
2851;DHT22;1433;49.976;8.342;2023-05-10T02:10:10;13.00;99.90
2851;DHT22;1433;49.976;8.342;2023-05-10T02:12:46;13.00;99.90
2851;DHT22;1433;49.976;8.342;2023-05-10T02:15:16;13.00;99.90
2851;DHT22;1433;49.976;8.342;2023-05-10T02:17:45;13.00;99.90
2851;DHT22;1433;49.976;8.342;2023-05-10T02:20:12;13.10;99.90
2851;DHT22;1433;49.976;8.342;2023-05-10T02:22:40;13.10;99.90
2851;DHT22;1433;49.976;8.342;2023-05-10T02:25:08;13.10;99.90
2851;DHT22;1433;49.976;8.342;2023-05-10T02:27:36;13.10;99.90
2851;DHT22;1433;49.976;8.342;2023-05-10T02:30:04;13.10;99.90
2851;DHT22;1433;49.976;8.342;2023-05-10T02:32:32;13.10;99.90
2851;DHT22;1433;49.976;8.342;2023-05-10T02:35:01;13.10;99.90
2851;DHT22;1433;49.976;8.342;2023-05-10T02:37:29;13.10;99.90
2851;DHT22;1433;49.976;8.342;2023-05-10T02:39:56;13.20;99.90
2851;DHT22;1433;49.976;8.342;2023-05-10T02:42:29;13.20;99.90
2851;DHT22;1433;49.976;8.342;2023-05-10T02:44:56;13.20;99.90
2851;DHT22;1433;49.976;8.342;2023-05-10T02:47:22;13.20;99.90
2851;DHT22;1433;49.976;8.342;2023-05-10T02:49:49;13.20;99.90
2851;DHT22;1433;49.976;8.342;2023-05-10T02:52:19;13.20;99.90
2851;DHT22;1433;49.976;8.342;2023-05-10T02:54:45;13.20;99.90
2851;DHT22;1433;49.976;8.342;2023-05-10T02:57:22;13.20;99.90
2851;DHT22;1433;49.976;8.342;2023-05-10T02:59:47;13.20;99.90
2851;DHT22;1433;49.976;8.342;2023-05-10T03:02:14;13.20;99.90
2851;DHT22;1433;49.976;8.342;2023-05-10T03:04:40;13.20;99.90
2851;DHT22;1433;49.976;8.342;2023-05-10T03:07:07;13.10;99.90
2851;DHT22;1433;49.976;8.342;2023-05-10T03:09:33;13.10;99.90
2851;DHT22;1433;49.976;8.342;2023-05-10T03:15:00;13.10;99.90
2851;DHT22;1433;49.976;8.342;2023-05-10T03:17:40;13.10;99.90
2851;DHT22;1433;49.976;8.342;2023-05-10T03:20:06;13.10;99.90
2851;DHT22;1433;49.976;8.342;2023-05-10T03:22:47;13.10;99.90
2851;DHT22;1433;49.976;8.342;2023-05-10T03:25:16;13.10;99.90
2851;DHT22;1433;49.976;8.342;2023-05-10T03:27:45;13.10;99.90
2851;DHT22;1433;49.976;8.342;2023-05-10T03:30:12;13.10;99.90
2851;DHT22;1433;49.976;8.342;2023-05-10T03:32:39;13.20;99.90
2851;DHT22;1433;49.976;8.342;2023-05-10T03:35:09;13.10;99.90
2851;DHT22;1433;49.976;8.342;2023-05-10T03:37:36;13.10;99.90
2851;DHT22;1433;49.976;8.342;2023-05-10T03:40:02;13.20;99.90
2851;DHT22;1433;49.976;8.342;2023-05-10T03:42:31;13.20;99.90
2851;DHT22;1433;49.976;8.342;2023-05-10T03:44:57;13.20;99.90
2851;DHT22;1433;49.976;8.342;2023-05-10T03:47:24;13.20;99.90
2851;DHT22;1433;49.976;8.342;2023-05-10T03:49:50;13.20;99.90
2851;DHT22;1433;49.976;8.342;2023-05-10T03:52:17;13.20;99.90
2851;DHT22;1433;49.976;8.342;2023-05-10T03:54:44;13.20;99.90
2851;DHT22;1433;49.976;8.342;2023-05-10T03:57:10;13.20;99.90
2851;DHT22;1433;49.976;8.342;2023-05-10T03:59:36;13.20;99.90
2851;DHT22;1433;49.976;8.342;2023-05-10T04:02:03;13.20;99.90
2851;DHT22;1433;49.976;8.342;2023-05-10T04:04:29;13.20;99.90
2851;DHT22;1433;49.976;8.342;2023-05-10T04:06:56;13.20;99.90
2851;DHT22;1433;49.976;8.342;2023-05-10T04:09:22;13.20;99.90
2851;DHT22;1433;49.976;8.342;2023-05-10T04:11:48;13.30;99.90
2851;DHT22;1433;49.976;8.342;2023-05-10T04:14:14;13.30;99.90
2851;DHT22;1433;49.976;8.342;2023-05-10T04:16:40;13.30;99.90
2851;DHT22;1433;49.976;8.342;2023-05-10T04:19:29;13.30;99.90
2851;DHT22;1433;49.976;8.342;2023-05-10T04:21:55;13.30;99.90
2851;DHT22;1433;49.976;8.342;2023-05-10T04:24:21;13.40;99.90
2851;DHT22;1433;49.976;8.342;2023-05-10T04:26:47;13.40;99.90
2851;DHT22;1433;49.976;8.342;2023-05-10T04:29:14;13.40;99.90
2851;DHT22;1433;49.976;8.342;2023-05-10T04:31:40;13.40;99.90
2851;DHT22;1433;49.976;8.342;2023-05-10T04:34:08;13.40;99.90
2851;DHT22;1433;49.976;8.342;2023-05-10T04:36:34;13.40;99.90
2851;DHT22;1433;49.976;8.342;2023-05-10T04:39:02;13.40;99.90
2851;DHT22;1433;49.976;8.342;2023-05-10T04:41:28;13.40;99.90
2851;DHT22;1433;49.976;8.342;2023-05-10T04:43:55;13.40;99.90
2851;DHT22;1433;49.976;8.342;2023-05-10T04:46:21;13.40;99.90
2851;DHT22;1433;49.976;8.342;2023-05-10T04:48:47;13.40;99.90
2851;DHT22;1433;49.976;8.342;2023-05-10T04:51:14;13.40;99.90
2851;DHT22;1433;49.976;8.342;2023-05-10T04:53:40;13.40;99.90
2851;DHT22;1433;49.976;8.342;2023-05-10T04:56:06;13.40;99.90
2851;DHT22;1433;49.976;8.342;2023-05-10T04:58:33;13.50;99.90
2851;DHT22;1433;49.976;8.342;2023-05-10T05:01:06;13.50;99.90
2851;DHT22;1433;49.976;8.342;2023-05-10T05:03:33;13.40;99.90
2851;DHT22;1433;49.976;8.342;2023-05-10T05:05:59;13.40;99.90
2851;DHT22;1433;49.976;8.342;2023-05-10T05:08:25;13.40;99.90
2851;DHT22;1433;49.976;8.342;2023-05-10T05:10:51;13.40;99.90
2851;DHT22;1433;49.976;8.342;2023-05-10T05:13:17;13.30;99.90
2851;DHT22;1433;49.976;8.342;2023-05-10T05:15:44;13.40;99.90
2851;DHT22;1433;49.976;8.342;2023-05-10T05:18:10;13.30;99.90
2851;DHT22;1433;49.976;8.342;2023-05-10T05:20:36;13.30;99.90
2851;DHT22;1433;49.976;8.342;2023-05-10T05:23:02;13.30;99.90
2851;DHT22;1433;49.976;8.342;2023-05-10T05:25:28;13.30;99.90
2851;DHT22;1433;49.976;8.342;2023-05-10T05:27:55;13.30;99.90
2851;DHT22;1433;49.976;8.342;2023-05-10T05:30:21;13.30;99.90
2851;DHT22;1433;49.976;8.342;2023-05-10T05:32:47;13.30;99.90
2851;DHT22;1433;49.976;8.342;2023-05-10T05:35:13;13.20;99.90
2851;DHT22;1433;49.976;8.342;2023-05-10T05:37:39;13.20;99.90
2851;DHT22;1433;49.976;8.342;2023-05-10T05:40:06;13.20;99.90
2851;DHT22;1433;49.976;8.342;2023-05-10T05:42:32;13.20;99.90
2851;DHT22;1433;49.976;8.342;2023-05-10T05:44:58;13.20;99.90
2851;DHT22;1433;49.976;8.342;2023-05-10T05:47:25;13.30;99.90
2851;DHT22;1433;49.976;8.342;2023-05-10T05:49:51;13.30;99.90
2851;DHT22;1433;49.976;8.342;2023-05-10T05:52:17;13.40;99.90
2851;DHT22;1433;49.976;8.342;2023-05-10T05:54:43;13.40;99.90
2851;DHT22;1433;49.976;8.342;2023-05-10T05:57:09;13.40;99.90
2851;DHT22;1433;49.976;8.342;2023-05-10T05:59:36;13.50;99.90
2851;DHT22;1433;49.976;8.342;2023-05-10T06:02:02;13.60;99.90
2851;DHT22;1433;49.976;8.342;2023-05-10T06:04:28;13.70;99.90
2851;DHT22;1433;49.976;8.342;2023-05-10T06:06:54;13.70;99.90
2851;DHT22;1433;49.976;8.342;2023-05-10T06:09:20;13.70;99.90
2851;DHT22;1433;49.976;8.342;2023-05-10T06:11:46;13.80;99.90
2851;DHT22;1433;49.976;8.342;2023-05-10T06:14:13;13.80;99.90
2851;DHT22;1433;49.976;8.342;2023-05-10T06:16:39;13.80;99.90
2851;DHT22;1433;49.976;8.342;2023-05-10T06:19:05;13.90;99.90
2851;DHT22;1433;49.976;8.342;2023-05-10T06:21:31;14.00;99.90
2851;DHT22;1433;49.976;8.342;2023-05-10T06:23:57;14.10;99.90
2851;DHT22;1433;49.976;8.342;2023-05-10T06:26:23;14.10;99.90
2851;DHT22;1433;49.976;8.342;2023-05-10T06:28:49;14.10;99.90
2851;DHT22;1433;49.976;8.342;2023-05-10T06:31:16;14.10;99.90
2851;DHT22;1433;49.976;8.342;2023-05-10T06:33:42;14.20;99.90
2851;DHT22;1433;49.976;8.342;2023-05-10T06:36:08;14.30;99.90
2851;DHT22;1433;49.976;8.342;2023-05-10T06:38:34;14.50;99.90
2851;DHT22;1433;49.976;8.342;2023-05-10T06:41:01;14.80;99.90
2851;DHT22;1433;49.976;8.342;2023-05-10T06:43:27;15.10;99.90
2851;DHT22;1433;49.976;8.342;2023-05-10T06:45:54;15.10;99.90
2851;DHT22;1433;49.976;8.342;2023-05-10T06:48:21;15.20;99.90
2851;DHT22;1433;49.976;8.342;2023-05-10T06:50:47;15.40;99.90
2851;DHT22;1433;49.976;8.342;2023-05-10T06:53:13;15.40;99.90
2851;DHT22;1433;49.976;8.342;2023-05-10T06:55:39;15.50;99.90
2851;DHT22;1433;49.976;8.342;2023-05-10T06:58:05;15.60;99.90
2851;DHT22;1433;49.976;8.342;2023-05-10T07:00:32;15.70;99.90
2851;DHT22;1433;49.976;8.342;2023-05-10T07:02:58;15.80;99.90
2851;DHT22;1433;49.976;8.342;2023-05-10T07:05:24;15.70;99.90
2851;DHT22;1433;49.976;8.342;2023-05-10T07:07:50;15.90;99.90
2851;DHT22;1433;49.976;8.342;2023-05-10T07:10:17;16.00;99.90
2851;DHT22;1433;49.976;8.342;2023-05-10T07:12:44;16.20;99.90
2851;DHT22;1433;49.976;8.342;2023-05-10T07:15:10;16.10;99.90
2851;DHT22;1433;49.976;8.342;2023-05-10T07:17:36;15.90;99.90
2851;DHT22;1433;49.976;8.342;2023-05-10T07:20:03;15.90;99.90
2851;DHT22;1433;49.976;8.342;2023-05-10T07:22:29;16.00;99.90
2851;DHT22;1433;49.976;8.342;2023-05-10T07:24:55;16.20;99.90
2851;DHT22;1433;49.976;8.342;2023-05-10T07:27:21;16.40;99.90
2851;DHT22;1433;49.976;8.342;2023-05-10T07:29:47;16.60;99.90
2851;DHT22;1433;49.976;8.342;2023-05-10T07:32:14;16.70;99.90
2851;DHT22;1433;49.976;8.342;2023-05-10T07:34:40;16.80;99.90
2851;DHT22;1433;49.976;8.342;2023-05-10T07:37:06;17.00;99.90
2851;DHT22;1433;49.976;8.342;2023-05-10T07:39:33;17.10;99.90
2851;DHT22;1433;49.976;8.342;2023-05-10T07:41:59;17.00;99.90
2851;DHT22;1433;49.976;8.342;2023-05-10T07:44:25;16.80;99.90
2851;DHT22;1433;49.976;8.342;2023-05-10T07:46:51;16.70;99.90
2851;DHT22;1433;49.976;8.342;2023-05-10T07:49:19;16.70;99.90
2851;DHT22;1433;49.976;8.342;2023-05-10T07:51:45;17.00;99.90
2851;DHT22;1433;49.976;8.342;2023-05-10T07:54:11;17.20;99.90
2851;DHT22;1433;49.976;8.342;2023-05-10T07:56:38;17.50;99.90
2851;DHT22;1433;49.976;8.342;2023-05-10T07:59:05;17.90;28.80
2851;DHT22;1433;49.976;8.342;2023-05-10T08:01:33;18.10;82.40
2851;DHT22;1433;49.976;8.342;2023-05-10T08:04:00;18.30;1.00
2851;DHT22;1433;49.976;8.342;2023-05-10T08:06:27;18.00;1.00
2851;DHT22;1433;49.976;8.342;2023-05-10T08:08:56;17.60;67.20
2851;DHT22;1433;49.976;8.342;2023-05-10T08:11:22;17.50;99.90
2851;DHT22;1433;49.976;8.342;2023-05-10T08:13:50;17.30;99.90
2851;DHT22;1433;49.976;8.342;2023-05-10T08:16:20;17.30;99.90
2851;DHT22;1433;49.976;8.342;2023-05-10T08:18:48;17.20;99.90
2851;DHT22;1433;49.976;8.342;2023-05-10T08:21:16;17.00;99.90
2851;DHT22;1433;49.976;8.342;2023-05-10T08:23:42;16.90;99.90
2851;DHT22;1433;49.976;8.342;2023-05-10T08:26:10;16.70;99.90
2851;DHT22;1433;49.976;8.342;2023-05-10T08:28:45;16.50;99.90
2851;DHT22;1433;49.976;8.342;2023-05-10T08:31:11;16.30;99.90
2851;DHT22;1433;49.976;8.342;2023-05-10T08:33:38;16.40;99.90
2851;DHT22;1433;49.976;8.342;2023-05-10T08:36:05;16.60;99.90
2851;DHT22;1433;49.976;8.342;2023-05-10T08:38:31;16.70;99.90
2851;DHT22;1433;49.976;8.342;2023-05-10T08:40:59;16.80;99.90
2851;DHT22;1433;49.976;8.342;2023-05-10T08:43:27;17.10;99.90
2851;DHT22;1433;49.976;8.342;2023-05-10T08:45:55;17.40;99.90
2851;DHT22;1433;49.976;8.342;2023-05-10T08:48:26;17.70;99.90
2851;DHT22;1433;49.976;8.342;2023-05-10T08:50:57;17.80;99.90
2851;DHT22;1433;49.976;8.342;2023-05-10T08:53:24;17.80;99.90
2851;DHT22;1433;49.976;8.342;2023-05-10T08:55:52;17.90;99.90
2851;DHT22;1433;49.976;8.342;2023-05-10T08:58:19;17.90;99.90
2851;DHT22;1433;49.976;8.342;2023-05-10T09:00:48;17.70;99.90
2851;DHT22;1433;49.976;8.342;2023-05-10T09:03:14;17.20;99.90
2851;DHT22;1433;49.976;8.342;2023-05-10T09:05:41;16.50;99.90
2851;DHT22;1433;49.976;8.342;2023-05-10T09:08:08;15.10;99.90
2851;DHT22;1433;49.976;8.342;2023-05-10T09:10:35;14.40;99.90
2851;DHT22;1433;49.976;8.342;2023-05-10T09:13:02;14.30;99.90
2851;DHT22;1433;49.976;8.342;2023-05-10T09:15:28;14.10;99.90
2851;DHT22;1433;49.976;8.342;2023-05-10T09:17:54;14.00;99.90
2851;DHT22;1433;49.976;8.342;2023-05-10T09:20:21;14.00;99.90
2851;DHT22;1433;49.976;8.342;2023-05-10T09:22:48;14.10;99.90
2851;DHT22;1433;49.976;8.342;2023-05-10T09:25:15;14.30;99.90
2851;DHT22;1433;49.976;8.342;2023-05-10T09:27:47;14.50;99.90
2851;DHT22;1433;49.976;8.342;2023-05-10T09:32:52;14.60;99.90
2851;DHT22;1433;49.976;8.342;2023-05-10T09:35:21;14.60;99.90
2851;DHT22;1433;49.976;8.342;2023-05-10T09:37:50;14.80;99.90
2851;DHT22;1433;49.976;8.342;2023-05-10T09:40:21;14.80;99.90
2851;DHT22;1433;49.976;8.342;2023-05-10T09:43:07;14.90;99.90
2851;DHT22;1433;49.976;8.342;2023-05-10T09:45:34;15.10;99.90
2851;DHT22;1433;49.976;8.342;2023-05-10T09:48:02;15.40;99.90
2851;DHT22;1433;49.976;8.342;2023-05-10T09:50:29;15.40;99.90
2851;DHT22;1433;49.976;8.342;2023-05-10T09:52:58;15.50;99.90
2851;DHT22;1433;49.976;8.342;2023-05-10T09:55:45;15.70;99.90
2851;DHT22;1433;49.976;8.342;2023-05-10T09:58:13;16.00;99.90
2851;DHT22;1433;49.976;8.342;2023-05-10T10:00:42;16.30;99.90
2851;DHT22;1433;49.976;8.342;2023-05-10T10:03:16;16.60;99.90
2851;DHT22;1433;49.976;8.342;2023-05-10T10:05:43;17.00;99.90
2851;DHT22;1433;49.976;8.342;2023-05-10T10:08:11;17.30;99.90
2851;DHT22;1433;49.976;8.342;2023-05-10T10:10:38;17.60;99.90
2851;DHT22;1433;49.976;8.342;2023-05-10T10:13:07;17.80;99.90
2851;DHT22;1433;49.976;8.342;2023-05-10T10:15:34;17.70;99.90
2851;DHT22;1433;49.976;8.342;2023-05-10T10:18:00;17.80;99.90
2851;DHT22;1433;49.976;8.342;2023-05-10T10:20:28;17.80;99.90
2851;DHT22;1433;49.976;8.342;2023-05-10T10:22:54;17.70;99.90
2851;DHT22;1433;49.976;8.342;2023-05-10T10:25:20;17.90;99.90
2851;DHT22;1433;49.976;8.342;2023-05-10T10:28:14;18.10;99.90
2851;DHT22;1433;49.976;8.342;2023-05-10T10:30:46;18.80;99.90
2851;DHT22;1433;49.976;8.342;2023-05-10T10:36:02;20.10;52.70
2851;DHT22;1433;49.976;8.342;2023-05-10T10:38:57;20.20;62.40
2851;DHT22;1433;49.976;8.342;2023-05-10T10:41:37;20.20;1.00
2851;DHT22;1433;49.976;8.342;2023-05-10T10:52:58;19.10;1.00
2851;DHT22;1433;49.976;8.342;2023-05-10T10:55:26;19.00;1.00
2851;DHT22;1433;49.976;8.342;2023-05-10T10:57:56;18.30;99.90
2851;DHT22;1433;49.976;8.342;2023-05-10T11:00:31;18.30;1.00
2851;DHT22;1433;49.976;8.342;2023-05-10T11:05:43;17.90;1.00
2851;DHT22;1433;49.976;8.342;2023-05-10T11:08:19;17.90;1.00
2851;DHT22;1433;49.976;8.342;2023-05-10T11:11:03;17.90;1.00
2851;DHT22;1433;49.976;8.342;2023-05-10T11:13:46;17.90;99.90
2851;DHT22;1433;49.976;8.342;2023-05-10T11:16:20;18.20;99.90
2851;DHT22;1433;49.976;8.342;2023-05-10T11:21:32;18.30;1.00
2851;DHT22;1433;49.976;8.342;2023-05-10T11:24:00;18.70;99.90
2851;DHT22;1433;49.976;8.342;2023-05-10T11:26:36;19.30;1.00
2851;DHT22;1433;49.976;8.342;2023-05-10T11:29:03;19.90;1.00
2851;DHT22;1433;49.976;8.342;2023-05-10T11:31:30;20.50;1.00
2851;DHT22;1433;49.976;8.342;2023-05-10T11:33:59;20.10;1.00
2851;DHT22;1433;49.976;8.342;2023-05-10T11:36:34;20.00;99.90
2851;DHT22;1433;49.976;8.342;2023-05-10T11:39:02;19.80;1.00
2851;DHT22;1433;49.976;8.342;2023-05-10T11:41:30;20.40;1.00
2851;DHT22;1433;49.976;8.342;2023-05-10T11:43:57;20.60;1.00
2851;DHT22;1433;49.976;8.342;2023-05-10T11:46:26;21.10;99.90
2851;DHT22;1433;49.976;8.342;2023-05-10T11:48:55;21.30;99.90
2851;DHT22;1433;49.976;8.342;2023-05-10T11:51:22;21.00;99.90
2851;DHT22;1433;49.976;8.342;2023-05-10T11:53:50;20.90;99.90
2851;DHT22;1433;49.976;8.342;2023-05-10T11:56:18;20.90;99.90
2851;DHT22;1433;49.976;8.342;2023-05-10T11:58:52;20.50;99.90
2851;DHT22;1433;49.976;8.342;2023-05-10T12:01:20;20.40;99.90
2851;DHT22;1433;49.976;8.342;2023-05-10T12:03:47;21.00;99.90
2851;DHT22;1433;49.976;8.342;2023-05-10T12:06:13;21.00;99.90
2851;DHT22;1433;49.976;8.342;2023-05-10T12:08:44;21.10;99.90
2851;DHT22;1433;49.976;8.342;2023-05-10T12:11:09;21.20;99.90
2851;DHT22;1433;49.976;8.342;2023-05-10T12:13:40;20.60;70.80
2851;DHT22;1433;49.976;8.342;2023-05-10T12:16:15;20.00;99.90
2851;DHT22;1433;49.976;8.342;2023-05-10T12:18:42;20.30;99.90
2851;DHT22;1433;49.976;8.342;2023-05-10T12:21:12;20.30;99.90
2851;DHT22;1433;49.976;8.342;2023-05-10T12:23:39;20.00;99.90
2851;DHT22;1433;49.976;8.342;2023-05-10T12:26:06;19.80;99.90
2851;DHT22;1433;49.976;8.342;2023-05-10T12:28:33;20.10;99.90
2851;DHT22;1433;49.976;8.342;2023-05-10T12:30:59;19.70;99.90
2851;DHT22;1433;49.976;8.342;2023-05-10T12:33:26;19.30;99.90
2851;DHT22;1433;49.976;8.342;2023-05-10T12:35:53;19.00;99.90
2851;DHT22;1433;49.976;8.342;2023-05-10T12:38:29;19.10;15.20
2851;DHT22;1433;49.976;8.342;2023-05-10T12:40:57;19.10;1.00
2851;DHT22;1433;49.976;8.342;2023-05-10T12:43:23;19.50;1.00
2851;DHT22;1433;49.976;8.342;2023-05-10T12:45:50;19.50;99.90
2851;DHT22;1433;49.976;8.342;2023-05-10T12:48:16;19.10;1.00
2851;DHT22;1433;49.976;8.342;2023-05-10T12:50:43;19.10;1.00
2851;DHT22;1433;49.976;8.342;2023-05-10T12:53:09;19.10;1.00
2851;DHT22;1433;49.976;8.342;2023-05-10T12:55:35;19.00;1.00
2851;DHT22;1433;49.976;8.342;2023-05-10T12:58:02;18.80;1.00
2851;DHT22;1433;49.976;8.342;2023-05-10T13:00:28;18.60;1.00
2851;DHT22;1433;49.976;8.342;2023-05-10T13:02:54;18.70;56.00
2851;DHT22;1433;49.976;8.342;2023-05-10T13:05:20;18.60;1.00
2851;DHT22;1433;49.976;8.342;2023-05-10T13:07:47;18.30;9.40
2851;DHT22;1433;49.976;8.342;2023-05-10T13:10:14;18.40;99.90
2851;DHT22;1433;49.976;8.342;2023-05-10T13:12:40;18.50;99.90
2851;DHT22;1433;49.976;8.342;2023-05-10T13:15:07;18.60;99.90
2851;DHT22;1433;49.976;8.342;2023-05-10T13:17:33;18.90;99.90
2851;DHT22;1433;49.976;8.342;2023-05-10T13:20:00;19.80;64.80
2851;DHT22;1433;49.976;8.342;2023-05-10T13:22:26;20.80;99.90
2851;DHT22;1433;49.976;8.342;2023-05-10T13:24:52;21.70;99.90
2851;DHT22;1433;49.976;8.342;2023-05-10T13:27:18;21.90;1.00
2851;DHT22;1433;49.976;8.342;2023-05-10T13:29:44;22.20;99.90
2851;DHT22;1433;49.976;8.342;2023-05-10T13:32:10;21.70;99.90
2851;DHT22;1433;49.976;8.342;2023-05-10T13:34:37;21.20;91.70
2851;DHT22;1433;49.976;8.342;2023-05-10T13:37:03;21.10;99.90
2851;DHT22;1433;49.976;8.342;2023-05-10T13:39:29;21.20;1.00
2851;DHT22;1433;49.976;8.342;2023-05-10T13:41:57;21.40;1.00
2851;DHT22;1433;49.976;8.342;2023-05-10T13:44:23;22.00;1.00
2851;DHT22;1433;49.976;8.342;2023-05-10T13:46:50;21.50;1.00
2851;DHT22;1433;49.976;8.342;2023-05-10T13:49:16;21.50;1.00
2851;DHT22;1433;49.976;8.342;2023-05-10T13:51:43;21.70;1.00
2851;DHT22;1433;49.976;8.342;2023-05-10T13:54:09;22.10;99.90
2851;DHT22;1433;49.976;8.342;2023-05-10T13:56:35;22.40;1.00
2851;DHT22;1433;49.976;8.342;2023-05-10T13:59:01;22.10;1.00
2851;DHT22;1433;49.976;8.342;2023-05-10T14:01:27;21.40;1.00
2851;DHT22;1433;49.976;8.342;2023-05-10T14:03:54;20.90;1.00
2851;DHT22;1433;49.976;8.342;2023-05-10T14:06:20;21.10;1.00
2851;DHT22;1433;49.976;8.342;2023-05-10T14:08:46;21.10;1.00
2851;DHT22;1433;49.976;8.342;2023-05-10T14:11:12;20.80;98.70
2851;DHT22;1433;49.976;8.342;2023-05-10T14:13:39;20.90;80.00
2851;DHT22;1433;49.976;8.342;2023-05-10T14:16:06;21.00;24.20
2851;DHT22;1433;49.976;8.342;2023-05-10T14:18:32;21.20;1.00
2851;DHT22;1433;49.976;8.342;2023-05-10T14:20:58;21.30;1.00
2851;DHT22;1433;49.976;8.342;2023-05-10T14:23:24;21.50;1.00
2851;DHT22;1433;49.976;8.342;2023-05-10T14:25:52;21.70;1.00
2851;DHT22;1433;49.976;8.342;2023-05-10T14:28:18;22.30;1.00
2851;DHT22;1433;49.976;8.342;2023-05-10T14:30:45;22.20;87.40
2851;DHT22;1433;49.976;8.342;2023-05-10T14:33:11;22.20;45.60
2851;DHT22;1433;49.976;8.342;2023-05-10T14:35:37;22.20;37.30
2851;DHT22;1433;49.976;8.342;2023-05-10T14:38:03;22.30;52.60
2851;DHT22;1433;49.976;8.342;2023-05-10T14:40:30;21.90;65.70
2851;DHT22;1433;49.976;8.342;2023-05-10T14:42:56;22.00;47.80
2851;DHT22;1433;49.976;8.342;2023-05-10T14:45:23;22.20;99.70
2851;DHT22;1433;49.976;8.342;2023-05-10T14:47:49;21.70;1.00
2851;DHT22;1433;49.976;8.342;2023-05-10T14:50:16;21.50;1.00
2851;DHT22;1433;49.976;8.342;2023-05-10T14:52:44;21.50;1.00
2851;DHT22;1433;49.976;8.342;2023-05-10T14:55:10;21.70;1.00
2851;DHT22;1433;49.976;8.342;2023-05-10T14:57:37;22.00;53.30
2851;DHT22;1433;49.976;8.342;2023-05-10T15:00:04;21.60;1.00
2851;DHT22;1433;49.976;8.342;2023-05-10T15:02:30;21.50;1.00
2851;DHT22;1433;49.976;8.342;2023-05-10T15:04:56;21.10;1.00
2851;DHT22;1433;49.976;8.342;2023-05-10T15:07:24;20.80;1.00
2851;DHT22;1433;49.976;8.342;2023-05-10T15:09:50;20.50;1.00
2851;DHT22;1433;49.976;8.342;2023-05-10T15:12:18;20.50;1.00
2851;DHT22;1433;49.976;8.342;2023-05-10T15:14:44;20.30;1.00
2851;DHT22;1433;49.976;8.342;2023-05-10T15:17:13;20.20;1.00
2851;DHT22;1433;49.976;8.342;2023-05-10T15:19:42;20.50;1.00
2851;DHT22;1433;49.976;8.342;2023-05-10T15:22:08;20.50;1.00
2851;DHT22;1433;49.976;8.342;2023-05-10T15:24:35;20.60;1.00
2851;DHT22;1433;49.976;8.342;2023-05-10T15:27:01;20.90;1.00
2851;DHT22;1433;49.976;8.342;2023-05-10T15:29:27;21.00;1.00
2851;DHT22;1433;49.976;8.342;2023-05-10T15:31:53;20.80;1.00
2851;DHT22;1433;49.976;8.342;2023-05-10T15:34:20;21.00;1.00
2851;DHT22;1433;49.976;8.342;2023-05-10T15:36:46;21.30;1.00
2851;DHT22;1433;49.976;8.342;2023-05-10T15:39:12;21.20;1.00
2851;DHT22;1433;49.976;8.342;2023-05-10T15:41:38;21.00;1.00
2851;DHT22;1433;49.976;8.342;2023-05-10T15:44:04;21.00;1.00
2851;DHT22;1433;49.976;8.342;2023-05-10T15:46:30;21.20;1.00
2851;DHT22;1433;49.976;8.342;2023-05-10T15:48:57;21.50;1.00
2851;DHT22;1433;49.976;8.342;2023-05-10T15:51:24;22.00;1.00
2851;DHT22;1433;49.976;8.342;2023-05-10T15:53:51;22.30;1.00
2851;DHT22;1433;49.976;8.342;2023-05-10T15:56:17;22.90;1.00
2851;DHT22;1433;49.976;8.342;2023-05-10T15:58:43;23.00;1.00
2851;DHT22;1433;49.976;8.342;2023-05-10T16:01:09;22.60;1.00
2851;DHT22;1433;49.976;8.342;2023-05-10T16:03:39;22.30;1.00
2851;DHT22;1433;49.976;8.342;2023-05-10T16:06:05;22.20;1.00
2851;DHT22;1433;49.976;8.342;2023-05-10T16:08:31;22.30;1.00
2851;DHT22;1433;49.976;8.342;2023-05-10T16:10:59;22.60;1.00
2851;DHT22;1433;49.976;8.342;2023-05-10T16:13:25;22.00;1.00
2851;DHT22;1433;49.976;8.342;2023-05-10T16:15:56;22.10;1.00
2851;DHT22;1433;49.976;8.342;2023-05-10T16:18:20;22.90;1.00
2851;DHT22;1433;49.976;8.342;2023-05-10T16:20:47;23.00;1.00
2851;DHT22;1433;49.976;8.342;2023-05-10T16:23:13;22.90;1.00
2851;DHT22;1433;49.976;8.342;2023-05-10T16:25:41;23.00;1.00
2851;DHT22;1433;49.976;8.342;2023-05-10T16:28:07;22.20;1.00
2851;DHT22;1433;49.976;8.342;2023-05-10T16:30:34;22.40;1.00
2851;DHT22;1433;49.976;8.342;2023-05-10T16:33:00;22.90;1.00
2851;DHT22;1433;49.976;8.342;2023-05-10T16:35:27;23.00;1.00
2851;DHT22;1433;49.976;8.342;2023-05-10T16:37:56;23.00;1.00
2851;DHT22;1433;49.976;8.342;2023-05-10T16:40:22;23.20;1.00
2851;DHT22;1433;49.976;8.342;2023-05-10T16:42:49;23.20;1.00
2851;DHT22;1433;49.976;8.342;2023-05-10T16:45:15;22.90;1.00
2851;DHT22;1433;49.976;8.342;2023-05-10T16:47:41;22.40;1.00